Terminal Aerodrome Forecast
Issued by NWS

Home | Current Version | Previous Version | Text Only | Print | Product List | Glossary On
Versions: 1 2 3 4 5 6 7 8 9 10 11 12 13 14
000
FTUS45 KGJT 260526
TAFDRO
TAF
KDRO 260526Z 2606/2706 35005KT P6SM FEW120 BKN180
     FM261200 01003KT P6SM VCSH FEW060 BKN100
     FM261800 26006KT P6SM FEW100 SCT150
     FM262100 33008KT P6SM SCT110 BKN150
     FM270100 01006KT P6SM SCT120=

USA.gov is the U.S. government's official web portal to all federal, state and local government web resources and services.